sensor_id;sensor_type;location;lat;lon;timestamp;temperature;humidity
5621;DHT22;2832;50.864;12.186;2023-07-31T00:02:37;21.70;98.00
5621;DHT22;2832;50.864;12.186;2023-07-31T00:05:07;21.70;98.00
5621;DHT22;2832;50.864;12.186;2023-07-31T00:07:37;21.70;98.00
5621;DHT22;2832;50.864;12.186;2023-07-31T00:10:09;21.70;98.00
5621;DHT22;2832;50.864;12.186;2023-07-31T00:12:44;21.70;98.00
5621;DHT22;2832;50.864;12.186;2023-07-31T00:15:26;21.70;97.90
5621;DHT22;2832;50.864;12.186;2023-07-31T00:17:56;21.80;98.00
5621;DHT22;2832;50.864;12.186;2023-07-31T00:20:25;21.70;97.90
5621;DHT22;2832;50.864;12.186;2023-07-31T00:22:54;21.80;97.90
5621;DHT22;2832;50.864;12.186;2023-07-31T00:25:24;21.70;97.80
5621;DHT22;2832;50.864;12.186;2023-07-31T00:27:53;21.70;97.80
5621;DHT22;2832;50.864;12.186;2023-07-31T00:30:23;21.70;97.90
5621;DHT22;2832;50.864;12.186;2023-07-31T00:32:52;21.70;97.80
5621;DHT22;2832;50.864;12.186;2023-07-31T00:35:20;21.70;97.90
5621;DHT22;2832;50.864;12.186;2023-07-31T00:37:48;21.70;97.80
5621;DHT22;2832;50.864;12.186;2023-07-31T00:40:16;21.70;97.90
5621;DHT22;2832;50.864;12.186;2023-07-31T00:42:48;21.80;97.80
5621;DHT22;2832;50.864;12.186;2023-07-31T00:45:18;21.80;97.80
5621;DHT22;2832;50.864;12.186;2023-07-31T00:47:47;21.70;97.60
5621;DHT22;2832;50.864;12.186;2023-07-31T00:50:16;21.80;97.80
5621;DHT22;2832;50.864;12.186;2023-07-31T00:52:45;21.70;97.70
5621;DHT22;2832;50.864;12.186;2023-07-31T00:55:14;21.70;97.70
5621;DHT22;2832;50.864;12.186;2023-07-31T00:57:46;21.70;97.70
5621;DHT22;2832;50.864;12.186;2023-07-31T01:00:18;21.70;97.70
5621;DHT22;2832;50.864;12.186;2023-07-31T01:02:47;21.70;97.80
5621;DHT22;2832;50.864;12.186;2023-07-31T01:05:25;21.70;97.90
5621;DHT22;2832;50.864;12.186;2023-07-31T01:08:12;21.70;98.20
5621;DHT22;2832;50.864;12.186;2023-07-31T01:10:58;21.60;97.90
5621;DHT22;2832;50.864;12.186;2023-07-31T01:13:35;21.60;98.10
5621;DHT22;2832;50.864;12.186;2023-07-31T01:16:15;21.60;98.20
5621;DHT22;2832;50.864;12.186;2023-07-31T01:18:47;21.60;98.30
5621;DHT22;2832;50.864;12.186;2023-07-31T01:21:36;21.60;98.50
5621;DHT22;2832;50.864;12.186;2023-07-31T01:24:33;21.60;98.70
5621;DHT22;2832;50.864;12.186;2023-07-31T01:27:40;21.60;98.80
5621;DHT22;2832;50.864;12.186;2023-07-31T01:30:15;21.60;99.00
5621;DHT22;2832;50.864;12.186;2023-07-31T01:33:06;21.60;99.20
5621;DHT22;2832;50.864;12.186;2023-07-31T01:35:38;21.60;99.50
5621;DHT22;2832;50.864;12.186;2023-07-31T01:38:09;21.60;99.50
5621;DHT22;2832;50.864;12.186;2023-07-31T01:40:42;21.60;99.70
5621;DHT22;2832;50.864;12.186;2023-07-31T01:43:14;21.60;99.90
5621;DHT22;2832;50.864;12.186;2023-07-31T01:45:49;21.50;99.90
5621;DHT22;2832;50.864;12.186;2023-07-31T01:48:28;21.60;99.90
5621;DHT22;2832;50.864;12.186;2023-07-31T01:51:06;21.50;99.90
5621;DHT22;2832;50.864;12.186;2023-07-31T01:53:49;21.50;99.90
5621;DHT22;2832;50.864;12.186;2023-07-31T01:56:18;21.50;99.90
5621;DHT22;2832;50.864;12.186;2023-07-31T01:58:48;21.40;99.90
5621;DHT22;2832;50.864;12.186;2023-07-31T02:01:16;21.40;99.90
5621;DHT22;2832;50.864;12.186;2023-07-31T02:03:44;21.40;99.90
5621;DHT22;2832;50.864;12.186;2023-07-31T02:06:13;21.30;99.90
5621;DHT22;2832;50.864;12.186;2023-07-31T02:08:41;21.30;99.90
5621;DHT22;2832;50.864;12.186;2023-07-31T02:11:09;21.30;99.90
5621;DHT22;2832;50.864;12.186;2023-07-31T02:13:54;21.30;99.90
5621;DHT22;2832;50.864;12.186;2023-07-31T02:16:23;21.20;99.90
5621;DHT22;2832;50.864;12.186;2023-07-31T02:18:52;21.20;99.90
5621;DHT22;2832;50.864;12.186;2023-07-31T02:21:22;21.20;99.90
5621;DHT22;2832;50.864;12.186;2023-07-31T02:24:06;21.10;99.90
5621;DHT22;2832;50.864;12.186;2023-07-31T02:26:37;21.10;99.90
5621;DHT22;2832;50.864;12.186;2023-07-31T02:29:08;21.10;99.90
5621;DHT22;2832;50.864;12.186;2023-07-31T02:31:38;21.10;99.90
5621;DHT22;2832;50.864;12.186;2023-07-31T02:34:06;21.10;99.90
5621;DHT22;2832;50.864;12.186;2023-07-31T02:36:34;21.10;99.90
5621;DHT22;2832;50.864;12.186;2023-07-31T02:39:02;21.10;99.90
5621;DHT22;2832;50.864;12.186;2023-07-31T02:41:29;21.00;99.90
5621;DHT22;2832;50.864;12.186;2023-07-31T02:43:59;21.00;99.90
5621;DHT22;2832;50.864;12.186;2023-07-31T02:46:28;21.00;99.90
5621;DHT22;2832;50.864;12.186;2023-07-31T02:48:59;21.00;99.90
5621;DHT22;2832;50.864;12.186;2023-07-31T02:51:28;21.00;99.90
5621;DHT22;2832;50.864;12.186;2023-07-31T02:53:56;20.90;99.90
5621;DHT22;2832;50.864;12.186;2023-07-31T02:56:26;20.90;99.90
5621;DHT22;2832;50.864;12.186;2023-07-31T02:58:56;21.00;99.90
5621;DHT22;2832;50.864;12.186;2023-07-31T03:01:26;21.00;99.90
5621;DHT22;2832;50.864;12.186;2023-07-31T03:03:54;21.00;99.90
5621;DHT22;2832;50.864;12.186;2023-07-31T03:06:24;20.90;99.90
5621;DHT22;2832;50.864;12.186;2023-07-31T03:09:31;20.90;99.90
5621;DHT22;2832;50.864;12.186;2023-07-31T03:12:04;20.90;99.90
5621;DHT22;2832;50.864;12.186;2023-07-31T03:14:32;20.80;99.90
5621;DHT22;2832;50.864;12.186;2023-07-31T03:17:01;20.80;99.90
5621;DHT22;2832;50.864;12.186;2023-07-31T03:19:31;20.80;99.90
5621;DHT22;2832;50.864;12.186;2023-07-31T03:22:01;20.80;99.90
5621;DHT22;2832;50.864;12.186;2023-07-31T03:24:36;20.70;99.90
5621;DHT22;2832;50.864;12.186;2023-07-31T03:27:08;20.70;99.90
5621;DHT22;2832;50.864;12.186;2023-07-31T03:29:37;20.70;99.90
5621;DHT22;2832;50.864;12.186;2023-07-31T03:32:06;20.70;99.90
5621;DHT22;2832;50.864;12.186;2023-07-31T03:34:35;20.70;99.90
5621;DHT22;2832;50.864;12.186;2023-07-31T03:37:16;20.70;99.90
5621;DHT22;2832;50.864;12.186;2023-07-31T03:40:09;20.70;99.90
5621;DHT22;2832;50.864;12.186;2023-07-31T03:42:43;20.70;99.90
5621;DHT22;2832;50.864;12.186;2023-07-31T03:45:19;20.70;99.90
5621;DHT22;2832;50.864;12.186;2023-07-31T03:47:47;20.60;99.90
5621;DHT22;2832;50.864;12.186;2023-07-31T03:50:15;20.60;99.90
5621;DHT22;2832;50.864;12.186;2023-07-31T03:52:45;20.60;99.90
5621;DHT22;2832;50.864;12.186;2023-07-31T03:55:14;20.60;99.90
5621;DHT22;2832;50.864;12.186;2023-07-31T03:57:42;20.50;99.90
5621;DHT22;2832;50.864;12.186;2023-07-31T04:00:13;20.50;99.90
5621;DHT22;2832;50.864;12.186;2023-07-31T04:02:41;20.50;99.90
5621;DHT22;2832;50.864;12.186;2023-07-31T04:05:09;20.50;99.90
5621;DHT22;2832;50.864;12.186;2023-07-31T04:07:38;20.50;99.90
5621;DHT22;2832;50.864;12.186;2023-07-31T04:10:22;20.50;99.90
5621;DHT22;2832;50.864;12.186;2023-07-31T04:13:10;20.50;99.90
5621;DHT22;2832;50.864;12.186;2023-07-31T04:16:07;20.50;99.90
5621;DHT22;2832;50.864;12.186;2023-07-31T04:18:44;20.50;99.90
5621;DHT22;2832;50.864;12.186;2023-07-31T04:21:36;20.50;99.90
5621;DHT22;2832;50.864;12.186;2023-07-31T04:24:06;20.50;99.90
5621;DHT22;2832;50.864;12.186;2023-07-31T04:26:36;20.50;99.90
5621;DHT22;2832;50.864;12.186;2023-07-31T04:29:03;20.50;99.90
5621;DHT22;2832;50.864;12.186;2023-07-31T04:31:33;20.50;99.90
5621;DHT22;2832;50.864;12.186;2023-07-31T04:34:02;20.50;99.90
5621;DHT22;2832;50.864;12.186;2023-07-31T04:36:31;20.50;99.90
5621;DHT22;2832;50.864;12.186;2023-07-31T04:38:59;20.50;99.90
5621;DHT22;2832;50.864;12.186;2023-07-31T04:41:27;20.50;99.90
5621;DHT22;2832;50.864;12.186;2023-07-31T04:43:57;20.50;99.90
5621;DHT22;2832;50.864;12.186;2023-07-31T04:46:28;20.50;99.90
5621;DHT22;2832;50.864;12.186;2023-07-31T04:48:56;20.50;99.90
5621;DHT22;2832;50.864;12.186;2023-07-31T04:51:24;20.50;99.90
5621;DHT22;2832;50.864;12.186;2023-07-31T04:53:57;20.40;99.90
5621;DHT22;2832;50.864;12.186;2023-07-31T04:56:25;20.40;99.90
5621;DHT22;2832;50.864;12.186;2023-07-31T04:58:53;20.40;99.90
5621;DHT22;2832;50.864;12.186;2023-07-31T05:01:23;20.40;99.90
5621;DHT22;2832;50.864;12.186;2023-07-31T05:03:52;20.30;99.90
5621;DHT22;2832;50.864;12.186;2023-07-31T05:06:22;20.30;99.90
5621;DHT22;2832;50.864;12.186;2023-07-31T05:08:51;20.30;99.90
5621;DHT22;2832;50.864;12.186;2023-07-31T05:11:38;20.30;99.90
5621;DHT22;2832;50.864;12.186;2023-07-31T05:14:27;20.30;99.90
5621;DHT22;2832;50.864;12.186;2023-07-31T05:16:57;20.30;99.90
5621;DHT22;2832;50.864;12.186;2023-07-31T05:19:29;20.30;99.90
5621;DHT22;2832;50.864;12.186;2023-07-31T05:22:17;20.30;99.90
5621;DHT22;2832;50.864;12.186;2023-07-31T05:24:46;20.20;99.90
5621;DHT22;2832;50.864;12.186;2023-07-31T05:27:15;20.20;99.90
5621;DHT22;2832;50.864;12.186;2023-07-31T05:29:49;20.20;99.90
5621;DHT22;2832;50.864;12.186;2023-07-31T05:32:19;20.20;99.90
5621;DHT22;2832;50.864;12.186;2023-07-31T05:34:52;20.20;99.90
5621;DHT22;2832;50.864;12.186;2023-07-31T05:37:23;20.20;99.90
5621;DHT22;2832;50.864;12.186;2023-07-31T05:39:51;20.20;99.90
5621;DHT22;2832;50.864;12.186;2023-07-31T05:42:19;20.20;99.90
5621;DHT22;2832;50.864;12.186;2023-07-31T05:44:50;20.20;99.90
5621;DHT22;2832;50.864;12.186;2023-07-31T05:47:20;20.20;99.90
5621;DHT22;2832;50.864;12.186;2023-07-31T05:49:49;20.30;99.90
5621;DHT22;2832;50.864;12.186;2023-07-31T05:52:25;20.20;99.90
5621;DHT22;2832;50.864;12.186;2023-07-31T05:54:55;20.20;99.90
5621;DHT22;2832;50.864;12.186;2023-07-31T05:57:24;20.20;99.90
5621;DHT22;2832;50.864;12.186;2023-07-31T05:59:53;20.20;99.90
5621;DHT22;2832;50.864;12.186;2023-07-31T06:02:23;20.20;99.90
5621;DHT22;2832;50.864;12.186;2023-07-31T06:04:51;20.20;99.90
5621;DHT22;2832;50.864;12.186;2023-07-31T06:07:18;20.30;99.90
5621;DHT22;2832;50.864;12.186;2023-07-31T06:09:50;20.30;99.90
5621;DHT22;2832;50.864;12.186;2023-07-31T06:12:21;20.20;99.90
5621;DHT22;2832;50.864;12.186;2023-07-31T06:14:49;20.30;99.90
5621;DHT22;2832;50.864;12.186;2023-07-31T06:17:17;20.30;99.90
5621;DHT22;2832;50.864;12.186;2023-07-31T06:19:47;20.30;99.90
5621;DHT22;2832;50.864;12.186;2023-07-31T06:22:17;20.20;99.90
5621;DHT22;2832;50.864;12.186;2023-07-31T06:24:46;20.30;99.90
5621;DHT22;2832;50.864;12.186;2023-07-31T06:27:14;20.30;99.90
5621;DHT22;2832;50.864;12.186;2023-07-31T06:29:42;20.20;99.90
5621;DHT22;2832;50.864;12.186;2023-07-31T06:32:12;20.30;99.90
5621;DHT22;2832;50.864;12.186;2023-07-31T06:34:42;20.30;99.90
5621;DHT22;2832;50.864;12.186;2023-07-31T06:37:12;20.30;99.90
5621;DHT22;2832;50.864;12.186;2023-07-31T06:39:41;20.30;99.90
5621;DHT22;2832;50.864;12.186;2023-07-31T06:42:10;20.30;99.90
5621;DHT22;2832;50.864;12.186;2023-07-31T06:44:41;20.30;99.90
5621;DHT22;2832;50.864;12.186;2023-07-31T06:47:09;20.20;99.90
5621;DHT22;2832;50.864;12.186;2023-07-31T06:49:37;20.20;99.90
5621;DHT22;2832;50.864;12.186;2023-07-31T06:52:07;20.20;99.90
5621;DHT22;2832;50.864;12.186;2023-07-31T06:54:38;20.30;99.90
5621;DHT22;2832;50.864;12.186;2023-07-31T06:57:11;20.30;99.90
5621;DHT22;2832;50.864;12.186;2023-07-31T06:59:41;20.30;99.90
5621;DHT22;2832;50.864;12.186;2023-07-31T07:02:09;20.30;99.90
5621;DHT22;2832;50.864;12.186;2023-07-31T07:04:39;20.30;99.90
5621;DHT22;2832;50.864;12.186;2023-07-31T07:07:10;20.30;99.90
5621;DHT22;2832;50.864;12.186;2023-07-31T07:09:40;20.30;99.90
5621;DHT22;2832;50.864;12.186;2023-07-31T07:12:20;20.30;99.90
5621;DHT22;2832;50.864;12.186;2023-07-31T07:14:58;20.30;99.90
5621;DHT22;2832;50.864;12.186;2023-07-31T07:17:29;20.30;99.90
5621;DHT22;2832;50.864;12.186;2023-07-31T07:19:57;20.30;99.90
5621;DHT22;2832;50.864;12.186;2023-07-31T07:22:26;20.30;99.90
5621;DHT22;2832;50.864;12.186;2023-07-31T07:25:00;20.30;99.90
5621;DHT22;2832;50.864;12.186;2023-07-31T07:27:29;20.30;99.90
5621;DHT22;2832;50.864;12.186;2023-07-31T07:30:03;20.30;99.90
5621;DHT22;2832;50.864;12.186;2023-07-31T07:32:37;20.30;99.90
5621;DHT22;2832;50.864;12.186;2023-07-31T07:35:09;20.30;99.90
5621;DHT22;2832;50.864;12.186;2023-07-31T07:37:38;20.30;99.90
5621;DHT22;2832;50.864;12.186;2023-07-31T07:40:09;20.30;99.90
5621;DHT22;2832;50.864;12.186;2023-07-31T07:42:44;20.30;99.90
5621;DHT22;2832;50.864;12.186;2023-07-31T07:45:18;20.40;99.90
5621;DHT22;2832;50.864;12.186;2023-07-31T07:47:46;20.40;99.90
5621;DHT22;2832;50.864;12.186;2023-07-31T07:50:14;20.40;99.90
5621;DHT22;2832;50.864;12.186;2023-07-31T07:52:44;20.50;99.90
5621;DHT22;2832;50.864;12.186;2023-07-31T07:55:33;20.50;99.90
5621;DHT22;2832;50.864;12.186;2023-07-31T07:58:01;20.50;99.90
5621;DHT22;2832;50.864;12.186;2023-07-31T08:00:33;20.50;99.90
5621;DHT22;2832;50.864;12.186;2023-07-31T08:03:03;20.50;99.90
5621;DHT22;2832;50.864;12.186;2023-07-31T08:05:33;20.60;99.90
5621;DHT22;2832;50.864;12.186;2023-07-31T08:08:14;20.60;99.90
5621;DHT22;2832;50.864;12.186;2023-07-31T08:10:57;20.50;99.90
5621;DHT22;2832;50.864;12.186;2023-07-31T08:13:35;20.60;99.90
5621;DHT22;2832;50.864;12.186;2023-07-31T08:16:05;20.60;99.90
5621;DHT22;2832;50.864;12.186;2023-07-31T08:18:33;20.60;99.90
5621;DHT22;2832;50.864;12.186;2023-07-31T08:21:04;20.60;99.90
5621;DHT22;2832;50.864;12.186;2023-07-31T08:23:36;20.60;99.90
5621;DHT22;2832;50.864;12.186;2023-07-31T08:26:15;20.60;99.90
5621;DHT22;2832;50.864;12.186;2023-07-31T08:28:44;20.60;99.90
5621;DHT22;2832;50.864;12.186;2023-07-31T08:31:14;20.60;99.90
5621;DHT22;2832;50.864;12.186;2023-07-31T08:33:44;20.60;99.90
5621;DHT22;2832;50.864;12.186;2023-07-31T08:36:19;20.60;99.90
5621;DHT22;2832;50.864;12.186;2023-07-31T08:38:59;20.60;99.90
5621;DHT22;2832;50.864;12.186;2023-07-31T08:41:30;20.60;99.90
5621;DHT22;2832;50.864;12.186;2023-07-31T08:43:59;20.60;99.90
5621;DHT22;2832;50.864;12.186;2023-07-31T08:46:31;20.60;99.90
5621;DHT22;2832;50.864;12.186;2023-07-31T08:49:12;20.70;99.90
5621;DHT22;2832;50.864;12.186;2023-07-31T08:51:46;20.70;99.90
5621;DHT22;2832;50.864;12.186;2023-07-31T08:54:18;20.70;99.90
5621;DHT22;2832;50.864;12.186;2023-07-31T08:56:49;20.70;99.90
5621;DHT22;2832;50.864;12.186;2023-07-31T08:59:18;20.70;99.90
5621;DHT22;2832;50.864;12.186;2023-07-31T09:01:50;20.70;99.90
5621;DHT22;2832;50.864;12.186;2023-07-31T09:04:22;20.70;99.90
5621;DHT22;2832;50.864;12.186;2023-07-31T09:06:52;20.70;99.90
5621;DHT22;2832;50.864;12.186;2023-07-31T09:09:26;20.70;99.90
5621;DHT22;2832;50.864;12.186;2023-07-31T09:12:26;20.70;99.90
5621;DHT22;2832;50.864;12.186;2023-07-31T09:15:03;20.70;99.90
5621;DHT22;2832;50.864;12.186;2023-07-31T09:17:33;20.70;99.90
5621;DHT22;2832;50.864;12.186;2023-07-31T09:20:20;20.70;99.90
5621;DHT22;2832;50.864;12.186;2023-07-31T09:22:49;20.80;99.90
5621;DHT22;2832;50.864;12.186;2023-07-31T09:25:19;20.80;99.90
5621;DHT22;2832;50.864;12.186;2023-07-31T09:27:52;20.70;99.90
5621;DHT22;2832;50.864;12.186;2023-07-31T09:30:22;20.70;99.90
5621;DHT22;2832;50.864;12.186;2023-07-31T09:32:59;20.70;99.90
5621;DHT22;2832;50.864;12.186;2023-07-31T09:35:29;20.70;99.90
5621;DHT22;2832;50.864;12.186;2023-07-31T09:38:03;20.60;99.90
5621;DHT22;2832;50.864;12.186;2023-07-31T09:40:34;20.70;99.90
5621;DHT22;2832;50.864;12.186;2023-07-31T09:43:07;20.70;99.90
5621;DHT22;2832;50.864;12.186;2023-07-31T09:45:37;20.60;99.90
5621;DHT22;2832;50.864;12.186;2023-07-31T09:48:12;20.60;99.90
5621;DHT22;2832;50.864;12.186;2023-07-31T09:50:43;20.50;99.90
5621;DHT22;2832;50.864;12.186;2023-07-31T09:53:12;20.50;99.90
5621;DHT22;2832;50.864;12.186;2023-07-31T09:55:41;20.60;99.90
5621;DHT22;2832;50.864;12.186;2023-07-31T09:58:20;20.60;99.90
5621;DHT22;2832;50.864;12.186;2023-07-31T10:00:52;20.60;99.90
5621;DHT22;2832;50.864;12.186;2023-07-31T10:03:20;20.60;99.90
5621;DHT22;2832;50.864;12.186;2023-07-31T10:05:52;20.60;99.90
5621;DHT22;2832;50.864;12.186;2023-07-31T10:08:26;20.50;99.90
5621;DHT22;2832;50.864;12.186;2023-07-31T10:11:01;20.60;99.90
5621;DHT22;2832;50.864;12.186;2023-07-31T10:13:34;20.60;99.90
5621;DHT22;2832;50.864;12.186;2023-07-31T10:16:06;20.60;99.90
5621;DHT22;2832;50.864;12.186;2023-07-31T10:18:37;20.60;99.90
5621;DHT22;2832;50.864;12.186;2023-07-31T10:21:19;20.70;99.90
5621;DHT22;2832;50.864;12.186;2023-07-31T10:24:08;20.70;99.90
5621;DHT22;2832;50.864;12.186;2023-07-31T10:26:47;20.70;99.90
5621;DHT22;2832;50.864;12.186;2023-07-31T10:29:26;20.70;99.90
5621;DHT22;2832;50.864;12.186;2023-07-31T10:32:01;20.80;99.90
5621;DHT22;2832;50.864;12.186;2023-07-31T10:34:34;20.80;99.90
5621;DHT22;2832;50.864;12.186;2023-07-31T10:37:22;20.80;99.90
5621;DHT22;2832;50.864;12.186;2023-07-31T10:40:27;20.80;99.90
5621;DHT22;2832;50.864;12.186;2023-07-31T10:43:00;20.80;99.90
5621;DHT22;2832;50.864;12.186;2023-07-31T10:45:45;20.80;99.90
5621;DHT22;2832;50.864;12.186;2023-07-31T10:48:16;20.80;99.90
5621;DHT22;2832;50.864;12.186;2023-07-31T10:51:01;20.90;99.90
5621;DHT22;2832;50.864;12.186;2023-07-31T10:53:48;20.90;99.90
5621;DHT22;2832;50.864;12.186;2023-07-31T10:56:38;20.90;99.90
5621;DHT22;2832;50.864;12.186;2023-07-31T10:59:17;21.00;99.90
5621;DHT22;2832;50.864;12.186;2023-07-31T11:02:03;20.90;99.90
5621;DHT22;2832;50.864;12.186;2023-07-31T11:04:43;20.90;99.90
5621;DHT22;2832;50.864;12.186;2023-07-31T11:07:21;21.00;99.90
5621;DHT22;2832;50.864;12.186;2023-07-31T11:09:53;21.00;99.90
5621;DHT22;2832;50.864;12.186;2023-07-31T11:12:27;21.00;99.90
5621;DHT22;2832;50.864;12.186;2023-07-31T11:15:07;20.90;99.90
5621;DHT22;2832;50.864;12.186;2023-07-31T11:17:41;20.90;99.90
5621;DHT22;2832;50.864;12.186;2023-07-31T11:20:10;21.00;99.90
5621;DHT22;2832;50.864;12.186;2023-07-31T11:22:42;21.00;99.90
5621;DHT22;2832;50.864;12.186;2023-07-31T11:25:18;21.00;99.90
5621;DHT22;2832;50.864;12.186;2023-07-31T11:28:02;21.00;99.90
5621;DHT22;2832;50.864;12.186;2023-07-31T11:30:43;21.00;99.90
5621;DHT22;2832;50.864;12.186;2023-07-31T11:33:27;21.10;99.90
5621;DHT22;2832;50.864;12.186;2023-07-31T11:36:01;21.10;99.90
5621;DHT22;2832;50.864;12.186;2023-07-31T11:38:43;21.00;99.90
5621;DHT22;2832;50.864;12.186;2023-07-31T11:41:15;21.00;99.90
5621;DHT22;2832;50.864;12.186;2023-07-31T11:43:47;21.00;99.90
5621;DHT22;2832;50.864;12.186;2023-07-31T11:46:16;21.00;99.90
5621;DHT22;2832;50.864;12.186;2023-07-31T11:48:50;21.10;99.90
5621;DHT22;2832;50.864;12.186;2023-07-31T11:51:26;21.10;99.90
5621;DHT22;2832;50.864;12.186;2023-07-31T11:54:00;21.10;99.90
5621;DHT22;2832;50.864;12.186;2023-07-31T11:56:33;21.10;99.90
5621;DHT22;2832;50.864;12.186;2023-07-31T11:59:06;21.00;99.90
5621;DHT22;2832;50.864;12.186;2023-07-31T12:01:38;21.00;99.90
5621;DHT22;2832;50.864;12.186;2023-07-31T12:04:25;21.00;99.90
5621;DHT22;2832;50.864;12.186;2023-07-31T12:07:01;21.20;99.90
5621;DHT22;2832;50.864;12.186;2023-07-31T12:09:33;21.20;99.90
5621;DHT22;2832;50.864;12.186;2023-07-31T12:12:08;21.20;99.90
5621;DHT22;2832;50.864;12.186;2023-07-31T12:14:44;21.30;99.90
5621;DHT22;2832;50.864;12.186;2023-07-31T12:17:14;21.30;99.90
5621;DHT22;2832;50.864;12.186;2023-07-31T12:19:54;21.30;99.90
5621;DHT22;2832;50.864;12.186;2023-07-31T12:22:22;21.20;99.90
5621;DHT22;2832;50.864;12.186;2023-07-31T12:24:55;21.20;99.90
5621;DHT22;2832;50.864;12.186;2023-07-31T12:27:32;21.20;99.90
5621;DHT22;2832;50.864;12.186;2023-07-31T12:30:10;21.10;99.90
5621;DHT22;2832;50.864;12.186;2023-07-31T12:32:57;21.10;99.90
5621;DHT22;2832;50.864;12.186;2023-07-31T12:36:17;21.10;99.90
5621;DHT22;2832;50.864;12.186;2023-07-31T12:38:51;21.10;99.90
5621;DHT22;2832;50.864;12.186;2023-07-31T12:41:24;21.10;99.90
5621;DHT22;2832;50.864;12.186;2023-07-31T12:43:59;21.10;99.90
5621;DHT22;2832;50.864;12.186;2023-07-31T12:46:39;21.10;99.90
5621;DHT22;2832;50.864;12.186;2023-07-31T12:49:09;21.10;99.90
5621;DHT22;2832;50.864;12.186;2023-07-31T12:51:44;21.10;99.90
5621;DHT22;2832;50.864;12.186;2023-07-31T12:54:22;21.10;99.90
5621;DHT22;2832;50.864;12.186;2023-07-31T12:56:55;21.10;99.90
5621;DHT22;2832;50.864;12.186;2023-07-31T12:59:25;21.10;99.90
5621;DHT22;2832;50.864;12.186;2023-07-31T13:01:54;21.10;99.90
5621;DHT22;2832;50.864;12.186;2023-07-31T13:04:34;21.10;99.90
5621;DHT22;2832;50.864;12.186;2023-07-31T13:07:22;21.10;99.90
5621;DHT22;2832;50.864;12.186;2023-07-31T13:09:55;21.20;99.90
5621;DHT22;2832;50.864;12.186;2023-07-31T13:12:28;21.30;99.90
5621;DHT22;2832;50.864;12.186;2023-07-31T13:15:04;21.30;99.90
5621;DHT22;2832;50.864;12.186;2023-07-31T13:17:34;21.30;99.90
5621;DHT22;2832;50.864;12.186;2023-07-31T13:20:08;21.30;99.90
5621;DHT22;2832;50.864;12.186;2023-07-31T13:22:41;21.30;99.90
5621;DHT22;2832;50.864;12.186;2023-07-31T13:25:13;21.30;99.90
5621;DHT22;2832;50.864;12.186;2023-07-31T13:27:43;21.40;99.90
5621;DHT22;2832;50.864;12.186;2023-07-31T13:30:13;21.40;99.90
5621;DHT22;2832;50.864;12.186;2023-07-31T13:32:48;21.50;99.90
5621;DHT22;2832;50.864;12.186;2023-07-31T13:35:18;21.40;99.90
5621;DHT22;2832;50.864;12.186;2023-07-31T13:37:54;21.50;99.90
5621;DHT22;2832;50.864;12.186;2023-07-31T13:40:31;21.50;99.90
5621;DHT22;2832;50.864;12.186;2023-07-31T13:43:01;21.50;99.90
5621;DHT22;2832;50.864;12.186;2023-07-31T13:45:33;21.50;99.90
5621;DHT22;2832;50.864;12.186;2023-07-31T13:48:02;21.50;99.90
5621;DHT22;2832;50.864;12.186;2023-07-31T13:50:31;21.50;99.90
5621;DHT22;2832;50.864;12.186;2023-07-31T13:53:01;21.50;99.90
5621;DHT22;2832;50.864;12.186;2023-07-31T13:55:30;21.60;99.90
5621;DHT22;2832;50.864;12.186;2023-07-31T13:57:58;21.60;99.90
5621;DHT22;2832;50.864;12.186;2023-07-31T14:00:30;21.70;99.90
5621;DHT22;2832;50.864;12.186;2023-07-31T14:02:59;21.70;99.90
5621;DHT22;2832;50.864;12.186;2023-07-31T14:05:30;21.80;99.90
5621;DHT22;2832;50.864;12.186;2023-07-31T14:08:05;21.80;99.90
5621;DHT22;2832;50.864;12.186;2023-07-31T14:10:34;21.80;99.90
5621;DHT22;2832;50.864;12.186;2023-07-31T14:13:34;21.80;99.90
5621;DHT22;2832;50.864;12.186;2023-07-31T14:16:16;21.70;99.90
5621;DHT22;2832;50.864;12.186;2023-07-31T14:19:10;21.80;99.90
5621;DHT22;2832;50.864;12.186;2023-07-31T14:22:03;21.80;99.90
5621;DHT22;2832;50.864;12.186;2023-07-31T14:24:46;21.80;99.90
5621;DHT22;2832;50.864;12.186;2023-07-31T14:27:14;21.70;99.90
5621;DHT22;2832;50.864;12.186;2023-07-31T14:29:45;21.70;99.90
5621;DHT22;2832;50.864;12.186;2023-07-31T14:32:20;21.80;99.90
5621;DHT22;2832;50.864;12.186;2023-07-31T14:34:53;21.80;99.90
5621;DHT22;2832;50.864;12.186;2023-07-31T14:37:26;21.80;99.90
5621;DHT22;2832;50.864;12.186;2023-07-31T14:39:58;21.70;99.90
5621;DHT22;2832;50.864;12.186;2023-07-31T14:42:32;21.60;99.90
5621;DHT22;2832;50.864;12.186;2023-07-31T14:45:13;21.70;99.90
5621;DHT22;2832;50.864;12.186;2023-07-31T14:47:51;21.70;99.90
5621;DHT22;2832;50.864;12.186;2023-07-31T14:50:23;21.70;99.90
5621;DHT22;2832;50.864;12.186;2023-07-31T14:52:56;21.70;99.90
5621;DHT22;2832;50.864;12.186;2023-07-31T14:55:32;21.80;99.90
5621;DHT22;2832;50.864;12.186;2023-07-31T14:58:08;21.80;99.90
5621;DHT22;2832;50.864;12.186;2023-07-31T15:00:39;21.80;99.90
5621;DHT22;2832;50.864;12.186;2023-07-31T15:03:12;21.90;99.90
5621;DHT22;2832;50.864;12.186;2023-07-31T15:05:49;21.90;99.90
5621;DHT22;2832;50.864;12.186;2023-07-31T15:08:23;21.90;99.90
5621;DHT22;2832;50.864;12.186;2023-07-31T15:11:01;22.00;99.90
5621;DHT22;2832;50.864;12.186;2023-07-31T15:13:52;21.90;99.90
5621;DHT22;2832;50.864;12.186;2023-07-31T15:16:27;21.90;99.90
5621;DHT22;2832;50.864;12.186;2023-07-31T15:19:24;21.90;99.90
5621;DHT22;2832;50.864;12.186;2023-07-31T15:21:55;21.90;99.90
5621;DHT22;2832;50.864;12.186;2023-07-31T15:24:27;21.80;99.90
5621;DHT22;2832;50.864;12.186;2023-07-31T15:27:34;21.80;99.90
5621;DHT22;2832;50.864;12.186;2023-07-31T15:30:30;21.90;99.90
5621;DHT22;2832;50.864;12.186;2023-07-31T15:33:20;21.90;99.90
5621;DHT22;2832;50.864;12.186;2023-07-31T15:35:49;21.90;99.90
5621;DHT22;2832;50.864;12.186;2023-07-31T15:38:18;21.90;99.90
5621;DHT22;2832;50.864;12.186;2023-07-31T15:40:54;21.90;99.90
5621;DHT22;2832;50.864;12.186;2023-07-31T15:43:29;21.90;99.90
5621;DHT22;2832;50.864;12.186;2023-07-31T15:46:00;21.90;99.90
5621;DHT22;2832;50.864;12.186;2023-07-31T15:48:36;21.90;99.90
5621;DHT22;2832;50.864;12.186;2023-07-31T15:51:05;21.90;99.90
5621;DHT22;2832;50.864;12.186;2023-07-31T15:53:43;22.00;99.90
5621;DHT22;2832;50.864;12.186;2023-07-31T15:56:12;21.90;99.90
5621;DHT22;2832;50.864;12.186;2023-07-31T15:58:49;22.00;99.90
5621;DHT22;2832;50.864;12.186;2023-07-31T16:01:27;22.00;99.90
5621;DHT22;2832;50.864;12.186;2023-07-31T16:04:08;21.90;99.90
5621;DHT22;2832;50.864;12.186;2023-07-31T16:06:58;21.90;99.90
5621;DHT22;2832;50.864;12.186;2023-07-31T16:09:39;21.90;99.90
5621;DHT22;2832;50.864;12.186;2023-07-31T16:12:15;22.00;99.90
5621;DHT22;2832;50.864;12.186;2023-07-31T16:14:45;22.00;99.90
5621;DHT22;2832;50.864;12.186;2023-07-31T16:17:13;22.00;99.90
5621;DHT22;2832;50.864;12.186;2023-07-31T16:19:45;22.10;99.90
5621;DHT22;2832;50.864;12.186;2023-07-31T16:22:14;22.00;99.90
5621;DHT22;2832;50.864;12.186;2023-07-31T16:24:48;22.00;99.90
5621;DHT22;2832;50.864;12.186;2023-07-31T16:27:47;21.90;99.90
5621;DHT22;2832;50.864;12.186;2023-07-31T16:30:38;22.00;99.90